sensor_id;sensor_type;location;lat;lon;timestamp;P1;durP1;ratioP1;P2;durP2;ratioP2
29570;SDS011;16814;52.118;11.436;2023-03-03T00:01:26;21.20;;;11.85;;
29570;SDS011;16814;52.118;11.436;2023-03-03T00:03:52;22.57;;;11.47;;
29570;SDS011;16814;52.118;11.436;2023-03-03T00:06:18;22.48;;;11.43;;
29570;SDS011;16814;52.118;11.436;2023-03-03T00:08:45;39.40;;;11.25;;
29570;SDS011;16814;52.118;11.436;2023-03-03T00:11:11;23.67;;;10.23;;
29570;SDS011;16814;52.118;11.436;2023-03-03T00:13:51;19.58;;;11.25;;
29570;SDS011;16814;52.118;11.436;2023-03-03T00:16:26;18.50;;;10.70;;
29570;SDS011;16814;52.118;11.436;2023-03-03T00:18:58;17.43;;;10.70;;
29570;SDS011;16814;52.118;11.436;2023-03-03T00:24:33;16.98;;;9.95;;
29570;SDS011;16814;52.118;11.436;2023-03-03T00:27:00;24.58;;;10.82;;
29570;SDS011;16814;52.118;11.436;2023-03-03T00:29:40;20.48;;;10.70;;
29570;SDS011;16814;52.118;11.436;2023-03-03T00:34:45;27.85;;;11.70;;
29570;SDS011;16814;52.118;11.436;2023-03-03T00:39:45;21.50;;;11.52;;
29570;SDS011;16814;52.118;11.436;2023-03-03T00:42:11;27.63;;;12.20;;
29570;SDS011;16814;52.118;11.436;2023-03-03T00:44:45;51.78;;;13.55;;
29570;SDS011;16814;52.118;11.436;2023-03-03T00:52:32;27.42;;;13.27;;
29570;SDS011;16814;52.118;11.436;2023-03-03T00:55:00;24.42;;;13.05;;
29570;SDS011;16814;52.118;11.436;2023-03-03T00:57:26;32.45;;;14.00;;
29570;SDS011;16814;52.118;11.436;2023-03-03T00:59:54;30.90;;;14.15;;
29570;SDS011;16814;52.118;11.436;2023-03-03T01:02:20;43.57;;;14.43;;
29570;SDS011;16814;52.118;11.436;2023-03-03T01:04:47;37.60;;;15.20;;
29570;SDS011;16814;52.118;11.436;2023-03-03T01:07:16;53.13;;;16.03;;
29570;SDS011;16814;52.118;11.436;2023-03-03T01:09:43;63.97;;;16.97;;
29570;SDS011;16814;52.118;11.436;2023-03-03T01:12:10;68.35;;;17.20;;
29570;SDS011;16814;52.118;11.436;2023-03-03T01:14:36;41.57;;;16.80;;
29570;SDS011;16814;52.118;11.436;2023-03-03T01:17:02;52.53;;;17.38;;
29570;SDS011;16814;52.118;11.436;2023-03-03T01:19:28;43.58;;;17.17;;
29570;SDS011;16814;52.118;11.436;2023-03-03T01:21:53;37.53;;;16.93;;
29570;SDS011;16814;52.118;11.436;2023-03-03T01:24:19;40.95;;;17.42;;
29570;SDS011;16814;52.118;11.436;2023-03-03T01:26:45;38.65;;;17.10;;
29570;SDS011;16814;52.118;11.436;2023-03-03T01:29:11;43.60;;;18.00;;
29570;SDS011;16814;52.118;11.436;2023-03-03T01:31:38;43.78;;;18.55;;
29570;SDS011;16814;52.118;11.436;2023-03-03T01:34:04;45.53;;;19.23;;
29570;SDS011;16814;52.118;11.436;2023-03-03T01:36:31;50.25;;;20.75;;
29570;SDS011;16814;52.118;11.436;2023-03-03T01:38:58;66.45;;;22.17;;
29570;SDS011;16814;52.118;11.436;2023-03-03T01:41:28;65.85;;;23.23;;
29570;SDS011;16814;52.118;11.436;2023-03-03T01:43:57;70.57;;;24.83;;
29570;SDS011;16814;52.118;11.436;2023-03-03T01:49:28;69.85;;;25.52;;
29570;SDS011;16814;52.118;11.436;2023-03-03T01:52:01;80.13;;;25.47;;
29570;SDS011;16814;52.118;11.436;2023-03-03T01:54:30;95.22;;;27.50;;
29570;SDS011;16814;52.118;11.436;2023-03-03T01:57:02;77.85;;;26.80;;
29570;SDS011;16814;52.118;11.436;2023-03-03T01:59:31;84.82;;;27.42;;
29570;SDS011;16814;52.118;11.436;2023-03-03T02:02:01;75.90;;;26.47;;
29570;SDS011;16814;52.118;11.436;2023-03-03T02:04:28;69.97;;;25.03;;
29570;SDS011;16814;52.118;11.436;2023-03-03T02:06:58;75.23;;;25.57;;
29570;SDS011;16814;52.118;11.436;2023-03-03T02:12:06;59.78;;;22.52;;
29570;SDS011;16814;52.118;11.436;2023-03-03T02:14:35;61.95;;;22.15;;
29570;SDS011;16814;52.118;11.436;2023-03-03T02:17:01;55.67;;;21.73;;
29570;SDS011;16814;52.118;11.436;2023-03-03T02:22:10;57.67;;;22.25;;
29570;SDS011;16814;52.118;11.436;2023-03-03T02:24:38;57.70;;;21.37;;
29570;SDS011;16814;52.118;11.436;2023-03-03T02:27:14;59.75;;;22.67;;
29570;SDS011;16814;52.118;11.436;2023-03-03T02:29:39;62.78;;;23.65;;
29570;SDS011;16814;52.118;11.436;2023-03-03T02:32:05;59.03;;;22.60;;
29570;SDS011;16814;52.118;11.436;2023-03-03T02:34:41;59.35;;;22.05;;
29570;SDS011;16814;52.118;11.436;2023-03-03T02:37:10;49.87;;;20.33;;
29570;SDS011;16814;52.118;11.436;2023-03-03T02:39:36;54.73;;;21.63;;
29570;SDS011;16814;52.118;11.436;2023-03-03T02:44:44;69.82;;;23.30;;
29570;SDS011;16814;52.118;11.436;2023-03-03T02:47:10;57.38;;;23.17;;
29570;SDS011;16814;52.118;11.436;2023-03-03T02:49:36;55.17;;;22.40;;
29570;SDS011;16814;52.118;11.436;2023-03-03T02:52:02;55.28;;;22.38;;
29570;SDS011;16814;52.118;11.436;2023-03-03T02:54:31;58.60;;;23.90;;
29570;SDS011;16814;52.118;11.436;2023-03-03T02:56:57;57.00;;;22.98;;
29570;SDS011;16814;52.118;11.436;2023-03-03T02:59:23;61.72;;;23.55;;
29570;SDS011;16814;52.118;11.436;2023-03-03T03:01:49;57.60;;;23.17;;
29570;SDS011;16814;52.118;11.436;2023-03-03T03:04:16;60.97;;;23.65;;
29570;SDS011;16814;52.118;11.436;2023-03-03T03:06:43;60.67;;;23.50;;
29570;SDS011;16814;52.118;11.436;2023-03-03T03:09:10;57.10;;;23.17;;
29570;SDS011;16814;52.118;11.436;2023-03-03T03:11:36;58.80;;;23.05;;
29570;SDS011;16814;52.118;11.436;2023-03-03T03:14:03;58.35;;;22.80;;
29570;SDS011;16814;52.118;11.436;2023-03-03T03:16:30;55.10;;;22.50;;
29570;SDS011;16814;52.118;11.436;2023-03-03T03:18:56;58.42;;;23.05;;
29570;SDS011;16814;52.118;11.436;2023-03-03T03:21:22;59.53;;;24.05;;
29570;SDS011;16814;52.118;11.436;2023-03-03T03:23:47;61.03;;;24.42;;
29570;SDS011;16814;52.118;11.436;2023-03-03T03:26:14;72.93;;;25.95;;
29570;SDS011;16814;52.118;11.436;2023-03-03T03:28:40;70.27;;;26.80;;
29570;SDS011;16814;52.118;11.436;2023-03-03T03:31:07;71.57;;;27.73;;
29570;SDS011;16814;52.118;11.436;2023-03-03T03:33:34;74.03;;;27.60;;
29570;SDS011;16814;52.118;11.436;2023-03-03T03:36:00;70.18;;;27.08;;
29570;SDS011;16814;52.118;11.436;2023-03-03T03:38:26;70.95;;;26.83;;
29570;SDS011;16814;52.118;11.436;2023-03-03T03:40:53;60.22;;;24.88;;
29570;SDS011;16814;52.118;11.436;2023-03-03T03:43:19;65.83;;;26.03;;
29570;SDS011;16814;52.118;11.436;2023-03-03T03:45:45;64.83;;;25.23;;
29570;SDS011;16814;52.118;11.436;2023-03-03T03:48:10;59.25;;;24.48;;
29570;SDS011;16814;52.118;11.436;2023-03-03T03:50:36;51.13;;;22.48;;
29570;SDS011;16814;52.118;11.436;2023-03-03T03:53:03;54.95;;;23.42;;
29570;SDS011;16814;52.118;11.436;2023-03-03T03:55:29;52.40;;;22.00;;
29570;SDS011;16814;52.118;11.436;2023-03-03T03:57:55;52.60;;;21.40;;
29570;SDS011;16814;52.118;11.436;2023-03-03T04:00:21;55.63;;;22.45;;
29570;SDS011;16814;52.118;11.436;2023-03-03T04:02:47;54.20;;;23.42;;
29570;SDS011;16814;52.118;11.436;2023-03-03T04:05:13;56.47;;;23.38;;
29570;SDS011;16814;52.118;11.436;2023-03-03T04:07:39;60.30;;;24.42;;
29570;SDS011;16814;52.118;11.436;2023-03-03T04:10:04;57.13;;;23.07;;
29570;SDS011;16814;52.118;11.436;2023-03-03T04:12:31;57.90;;;23.35;;
29570;SDS011;16814;52.118;11.436;2023-03-03T04:15:02;60.20;;;24.42;;
29570;SDS011;16814;52.118;11.436;2023-03-03T04:17:30;55.47;;;24.00;;
29570;SDS011;16814;52.118;11.436;2023-03-03T04:19:55;55.30;;;23.43;;
29570;SDS011;16814;52.118;11.436;2023-03-03T04:22:21;54.67;;;22.58;;
29570;SDS011;16814;52.118;11.436;2023-03-03T04:24:46;52.00;;;21.97;;
29570;SDS011;16814;52.118;11.436;2023-03-03T04:27:12;52.40;;;22.90;;
29570;SDS011;16814;52.118;11.436;2023-03-03T04:29:40;49.72;;;22.00;;
29570;SDS011;16814;52.118;11.436;2023-03-03T04:32:06;52.90;;;22.35;;
29570;SDS011;16814;52.118;11.436;2023-03-03T04:34:31;51.67;;;21.77;;
29570;SDS011;16814;52.118;11.436;2023-03-03T04:36:57;52.85;;;22.45;;
29570;SDS011;16814;52.118;11.436;2023-03-03T04:39:23;56.38;;;23.90;;
29570;SDS011;16814;52.118;11.436;2023-03-03T04:41:49;55.73;;;23.03;;
29570;SDS011;16814;52.118;11.436;2023-03-03T04:44:14;51.85;;;22.30;;
29570;SDS011;16814;52.118;11.436;2023-03-03T04:46:40;45.27;;;20.67;;
29570;SDS011;16814;52.118;11.436;2023-03-03T04:49:05;50.50;;;20.85;;
29570;SDS011;16814;52.118;11.436;2023-03-03T04:51:32;50.40;;;21.45;;
29570;SDS011;16814;52.118;11.436;2023-03-03T04:53:58;45.10;;;21.13;;
29570;SDS011;16814;52.118;11.436;2023-03-03T04:56:24;51.83;;;20.60;;
29570;SDS011;16814;52.118;11.436;2023-03-03T04:58:53;48.55;;;20.90;;
29570;SDS011;16814;52.118;11.436;2023-03-03T05:01:19;46.17;;;20.17;;
29570;SDS011;16814;52.118;11.436;2023-03-03T05:03:44;49.92;;;20.58;;
29570;SDS011;16814;52.118;11.436;2023-03-03T05:06:10;53.53;;;22.47;;
29570;SDS011;16814;52.118;11.436;2023-03-03T05:08:35;53.17;;;22.17;;
29570;SDS011;16814;52.118;11.436;2023-03-03T05:11:01;51.90;;;22.13;;
29570;SDS011;16814;52.118;11.436;2023-03-03T05:13:27;51.67;;;22.20;;
29570;SDS011;16814;52.118;11.436;2023-03-03T05:15:54;51.13;;;21.77;;
29570;SDS011;16814;52.118;11.436;2023-03-03T05:18:23;51.80;;;22.13;;
29570;SDS011;16814;52.118;11.436;2023-03-03T05:20:49;49.63;;;21.52;;
29570;SDS011;16814;52.118;11.436;2023-03-03T05:23:16;47.88;;;21.33;;
29570;SDS011;16814;52.118;11.436;2023-03-03T05:25:42;53.55;;;21.55;;
29570;SDS011;16814;52.118;11.436;2023-03-03T05:28:10;47.83;;;20.70;;
29570;SDS011;16814;52.118;11.436;2023-03-03T05:30:37;54.53;;;21.75;;
29570;SDS011;16814;52.118;11.436;2023-03-03T05:33:03;53.17;;;22.20;;
29570;SDS011;16814;52.118;11.436;2023-03-03T05:35:29;48.15;;;20.88;;
29570;SDS011;16814;52.118;11.436;2023-03-03T05:37:56;54.70;;;21.58;;
29570;SDS011;16814;52.118;11.436;2023-03-03T05:40:23;50.10;;;21.58;;
29570;SDS011;16814;52.118;11.436;2023-03-03T05:42:49;44.77;;;20.70;;
29570;SDS011;16814;52.118;11.436;2023-03-03T05:45:15;46.33;;;20.38;;
29570;SDS011;16814;52.118;11.436;2023-03-03T05:47:44;52.17;;;21.70;;
29570;SDS011;16814;52.118;11.436;2023-03-03T05:50:13;47.75;;;21.33;;
29570;SDS011;16814;52.118;11.436;2023-03-03T05:52:38;47.05;;;20.98;;
29570;SDS011;16814;52.118;11.436;2023-03-03T05:55:04;48.90;;;21.50;;
29570;SDS011;16814;52.118;11.436;2023-03-03T05:57:30;47.03;;;20.47;;
29570;SDS011;16814;52.118;11.436;2023-03-03T05:59:56;57.10;;;22.33;;
29570;SDS011;16814;52.118;11.436;2023-03-03T06:02:21;54.10;;;22.20;;
29570;SDS011;16814;52.118;11.436;2023-03-03T06:04:47;53.80;;;22.83;;
29570;SDS011;16814;52.118;11.436;2023-03-03T06:07:13;52.78;;;22.58;;
29570;SDS011;16814;52.118;11.436;2023-03-03T06:09:38;52.77;;;22.20;;
29570;SDS011;16814;52.118;11.436;2023-03-03T06:12:04;51.97;;;22.10;;
29570;SDS011;16814;52.118;11.436;2023-03-03T06:14:30;51.78;;;21.75;;
29570;SDS011;16814;52.118;11.436;2023-03-03T06:16:56;46.17;;;20.83;;
29570;SDS011;16814;52.118;11.436;2023-03-03T06:19:22;48.00;;;22.15;;
29570;SDS011;16814;52.118;11.436;2023-03-03T06:21:48;55.60;;;25.10;;
29570;SDS011;16814;52.118;11.436;2023-03-03T06:24:13;51.20;;;23.47;;
29570;SDS011;16814;52.118;11.436;2023-03-03T06:26:39;59.10;;;25.42;;
29570;SDS011;16814;52.118;11.436;2023-03-03T06:29:05;50.35;;;23.20;;
29570;SDS011;16814;52.118;11.436;2023-03-03T06:31:31;53.60;;;22.10;;
29570;SDS011;16814;52.118;11.436;2023-03-03T06:33:56;52.35;;;22.00;;
29570;SDS011;16814;52.118;11.436;2023-03-03T06:36:22;51.03;;;20.47;;
29570;SDS011;16814;52.118;11.436;2023-03-03T06:38:49;47.27;;;20.93;;
29570;SDS011;16814;52.118;11.436;2023-03-03T06:41:15;46.93;;;20.20;;
29570;SDS011;16814;52.118;11.436;2023-03-03T06:43:40;45.13;;;20.35;;
29570;SDS011;16814;52.118;11.436;2023-03-03T06:46:07;44.47;;;19.97;;
29570;SDS011;16814;52.118;11.436;2023-03-03T06:48:33;46.77;;;21.67;;
29570;SDS011;16814;52.118;11.436;2023-03-03T06:50:59;49.80;;;21.70;;
29570;SDS011;16814;52.118;11.436;2023-03-03T06:53:26;42.35;;;19.25;;
29570;SDS011;16814;52.118;11.436;2023-03-03T06:55:53;43.15;;;19.90;;
29570;SDS011;16814;52.118;11.436;2023-03-03T06:58:20;44.50;;;20.00;;
29570;SDS011;16814;52.118;11.436;2023-03-03T07:00:56;45.30;;;21.25;;
29570;SDS011;16814;52.118;11.436;2023-03-03T07:03:23;41.85;;;18.80;;
29570;SDS011;16814;52.118;11.436;2023-03-03T07:05:52;40.58;;;19.70;;
29570;SDS011;16814;52.118;11.436;2023-03-03T07:08:18;40.17;;;19.33;;
29570;SDS011;16814;52.118;11.436;2023-03-03T07:10:46;42.80;;;19.73;;
29570;SDS011;16814;52.118;11.436;2023-03-03T07:13:22;46.67;;;21.27;;
29570;SDS011;16814;52.118;11.436;2023-03-03T07:15:50;48.97;;;21.40;;
29570;SDS011;16814;52.118;11.436;2023-03-03T07:21:24;53.65;;;26.42;;
29570;SDS011;16814;52.118;11.436;2023-03-03T07:23:58;53.85;;;25.85;;
29570;SDS011;16814;52.118;11.436;2023-03-03T07:26:45;64.53;;;31.60;;
29570;SDS011;16814;52.118;11.436;2023-03-03T07:29:26;52.23;;;28.37;;
29570;SDS011;16814;52.118;11.436;2023-03-03T07:31:55;52.47;;;25.02;;
29570;SDS011;16814;52.118;11.436;2023-03-03T07:34:23;49.95;;;22.55;;
29570;SDS011;16814;52.118;11.436;2023-03-03T07:36:57;68.93;;;35.03;;
29570;SDS011;16814;52.118;11.436;2023-03-03T07:39:30;50.10;;;23.20;;
29570;SDS011;16814;52.118;11.436;2023-03-03T07:42:01;50.97;;;25.10;;
29570;SDS011;16814;52.118;11.436;2023-03-03T07:44:36;45.25;;;21.50;;
29570;SDS011;16814;52.118;11.436;2023-03-03T07:50:07;46.22;;;21.02;;
29570;SDS011;16814;52.118;11.436;2023-03-03T07:52:41;45.70;;;21.70;;
29570;SDS011;16814;52.118;11.436;2023-03-03T07:58:14;48.73;;;22.70;;
29570;SDS011;16814;52.118;11.436;2023-03-03T08:01:22;49.92;;;23.88;;
29570;SDS011;16814;52.118;11.436;2023-03-03T08:04:17;51.23;;;24.37;;
29570;SDS011;16814;52.118;11.436;2023-03-03T08:11:54;45.87;;;21.57;;
29570;SDS011;16814;52.118;11.436;2023-03-03T08:14:25;47.08;;;20.75;;
29570;SDS011;16814;52.118;11.436;2023-03-03T08:16:54;43.13;;;20.15;;
29570;SDS011;16814;52.118;11.436;2023-03-03T08:19:21;50.63;;;24.75;;
29570;SDS011;16814;52.118;11.436;2023-03-03T08:21:47;51.05;;;25.48;;
29570;SDS011;16814;52.118;11.436;2023-03-03T08:24:12;82.03;;;48.50;;
29570;SDS011;16814;52.118;11.436;2023-03-03T08:26:38;68.13;;;39.63;;
29570;SDS011;16814;52.118;11.436;2023-03-03T08:29:03;56.47;;;30.57;;
29570;SDS011;16814;52.118;11.436;2023-03-03T08:31:29;58.23;;;33.60;;
29570;SDS011;16814;52.118;11.436;2023-03-03T08:33:54;54.20;;;30.00;;
29570;SDS011;16814;52.118;11.436;2023-03-03T08:36:20;50.47;;;25.43;;
29570;SDS011;16814;52.118;11.436;2023-03-03T08:38:46;44.33;;;21.30;;
29570;SDS011;16814;52.118;11.436;2023-03-03T08:41:12;39.90;;;20.40;;
29570;SDS011;16814;52.118;11.436;2023-03-03T08:43:38;41.77;;;20.90;;
29570;SDS011;16814;52.118;11.436;2023-03-03T08:46:04;41.53;;;20.92;;
29570;SDS011;16814;52.118;11.436;2023-03-03T08:48:31;49.77;;;23.27;;
29570;SDS011;16814;52.118;11.436;2023-03-03T08:50:58;45.42;;;21.25;;
29570;SDS011;16814;52.118;11.436;2023-03-03T08:53:23;40.63;;;20.75;;
29570;SDS011;16814;52.118;11.436;2023-03-03T08:55:49;41.35;;;20.10;;
29570;SDS011;16814;52.118;11.436;2023-03-03T08:58:15;44.80;;;21.43;;
29570;SDS011;16814;52.118;11.436;2023-03-03T09:00:42;39.67;;;20.33;;
29570;SDS011;16814;52.118;11.436;2023-03-03T09:03:08;41.90;;;20.07;;
29570;SDS011;16814;52.118;11.436;2023-03-03T09:05:34;42.63;;;20.53;;
29570;SDS011;16814;52.118;11.436;2023-03-03T09:08:02;43.60;;;20.90;;
29570;SDS011;16814;52.118;11.436;2023-03-03T09:10:28;45.38;;;20.67;;
29570;SDS011;16814;52.118;11.436;2023-03-03T09:12:56;41.75;;;19.88;;
29570;SDS011;16814;52.118;11.436;2023-03-03T09:15:26;40.38;;;19.38;;
29570;SDS011;16814;52.118;11.436;2023-03-03T09:17:57;38.30;;;19.50;;
29570;SDS011;16814;52.118;11.436;2023-03-03T09:20:35;37.80;;;19.00;;
29570;SDS011;16814;52.118;11.436;2023-03-03T09:23:25;38.72;;;19.33;;
29570;SDS011;16814;52.118;11.436;2023-03-03T09:28:50;37.40;;;18.33;;
29570;SDS011;16814;52.118;11.436;2023-03-03T09:33:54;37.38;;;19.75;;
29570;SDS011;16814;52.118;11.436;2023-03-03T09:39:22;61.67;;;33.08;;
29570;SDS011;16814;52.118;11.436;2023-03-03T09:42:11;60.72;;;32.10;;
29570;SDS011;16814;52.118;11.436;2023-03-03T09:45:18;34.45;;;17.98;;
29570;SDS011;16814;52.118;11.436;2023-03-03T10:07:26;37.92;;;19.08;;
29570;SDS011;16814;52.118;11.436;2023-03-03T10:10:13;42.83;;;20.00;;
29570;SDS011;16814;52.118;11.436;2023-03-03T10:18:54;48.77;;;22.80;;
29570;SDS011;16814;52.118;11.436;2023-03-03T10:24:28;45.33;;;21.67;;
29570;SDS011;16814;52.118;11.436;2023-03-03T10:27:02;43.17;;;20.20;;
29570;SDS011;16814;52.118;11.436;2023-03-03T10:34:46;40.50;;;19.90;;
29570;SDS011;16814;52.118;11.436;2023-03-03T10:40:20;44.27;;;21.50;;
29570;SDS011;16814;52.118;11.436;2023-03-03T10:43:02;45.97;;;21.83;;
29570;SDS011;16814;52.118;11.436;2023-03-03T10:49:09;47.87;;;22.30;;
29570;SDS011;16814;52.118;11.436;2023-03-03T11:00:20;42.15;;;20.75;;
29570;SDS011;16814;52.118;11.436;2023-03-03T11:08:19;42.88;;;19.92;;
29570;SDS011;16814;52.118;11.436;2023-03-03T11:11:15;39.78;;;19.27;;
29570;SDS011;16814;52.118;11.436;2023-03-03T11:16:53;36.28;;;17.92;;
29570;SDS011;16814;52.118;11.436;2023-03-03T11:19:47;47.88;;;20.73;;
29570;SDS011;16814;52.118;11.436;2023-03-03T11:25:37;44.47;;;22.38;;
29570;SDS011;16814;52.118;11.436;2023-03-03T11:28:30;44.13;;;20.73;;
29570;SDS011;16814;52.118;11.436;2023-03-03T11:31:04;40.63;;;19.45;;
29570;SDS011;16814;52.118;11.436;2023-03-03T11:33:37;41.85;;;20.33;;
29570;SDS011;16814;52.118;11.436;2023-03-03T11:38:47;43.28;;;21.63;;
29570;SDS011;16814;52.118;11.436;2023-03-03T11:41:29;39.20;;;20.33;;
29570;SDS011;16814;52.118;11.436;2023-03-03T11:44:24;39.42;;;19.73;;
29570;SDS011;16814;52.118;11.436;2023-03-03T11:47:05;38.75;;;19.33;;
29570;SDS011;16814;52.118;11.436;2023-03-03T11:55:36;38.15;;;18.98;;
29570;SDS011;16814;52.118;11.436;2023-03-03T11:58:13;36.55;;;18.08;;
29570;SDS011;16814;52.118;11.436;2023-03-03T12:00:46;36.47;;;18.17;;
29570;SDS011;16814;52.118;11.436;2023-03-03T12:03:31;34.97;;;17.20;;
29570;SDS011;16814;52.118;11.436;2023-03-03T12:28:08;31.63;;;17.08;;
29570;SDS011;16814;52.118;11.436;2023-03-03T12:30:58;35.40;;;16.92;;
29570;SDS011;16814;52.118;11.436;2023-03-03T12:33:52;29.20;;;15.57;;
29570;SDS011;16814;52.118;11.436;2023-03-03T12:39:05;30.67;;;15.43;;
29570;SDS011;16814;52.118;11.436;2023-03-03T12:44:40;33.15;;;15.32;;
29570;SDS011;16814;52.118;11.436;2023-03-03T12:47:15;31.33;;;15.88;;
29570;SDS011;16814;52.118;11.436;2023-03-03T12:50:04;30.63;;;15.68;;
29570;SDS011;16814;52.118;11.436;2023-03-03T12:55:52;28.05;;;14.85;;
29570;SDS011;16814;52.118;11.436;2023-03-03T12:58:27;30.23;;;15.23;;
29570;SDS011;16814;52.118;11.436;2023-03-03T13:04:35;29.67;;;15.85;;
29570;SDS011;16814;52.118;11.436;2023-03-03T13:07:29;28.15;;;15.30;;
29570;SDS011;16814;52.118;11.436;2023-03-03T13:10:20;26.75;;;14.30;;
29570;SDS011;16814;52.118;11.436;2023-03-03T13:13:10;26.38;;;14.13;;
29570;SDS011;16814;52.118;11.436;2023-03-03T13:18:56;29.17;;;14.65;;
29570;SDS011;16814;52.118;11.436;2023-03-03T13:21:41;29.00;;;14.48;;
29570;SDS011;16814;52.118;11.436;2023-03-03T13:24:22;29.60;;;14.30;;
29570;SDS011;16814;52.118;11.436;2023-03-03T13:27:03;27.52;;;14.00;;
29570;SDS011;16814;52.118;11.436;2023-03-03T13:32:22;24.52;;;13.88;;
29570;SDS011;16814;52.118;11.436;2023-03-03T13:35:00;28.90;;;14.65;;
29570;SDS011;16814;52.118;11.436;2023-03-03T13:37:40;28.48;;;14.88;;
29570;SDS011;16814;52.118;11.436;2023-03-03T13:40:18;29.33;;;15.45;;
29570;SDS011;16814;52.118;11.436;2023-03-03T13:48:44;32.15;;;16.33;;
29570;SDS011;16814;52.118;11.436;2023-03-03T13:51:31;28.85;;;15.40;;
29570;SDS011;16814;52.118;11.436;2023-03-03T13:54:13;32.90;;;16.58;;
29570;SDS011;16814;52.118;11.436;2023-03-03T13:56:59;35.42;;;16.67;;
29570;SDS011;16814;52.118;11.436;2023-03-03T13:59:51;27.73;;;15.10;;
29570;SDS011;16814;52.118;11.436;2023-03-03T14:02:47;26.75;;;14.68;;
29570;SDS011;16814;52.118;11.436;2023-03-03T14:05:35;26.00;;;13.88;;
29570;SDS011;16814;52.118;11.436;2023-03-03T14:08:06;32.00;;;15.50;;
29570;SDS011;16814;52.118;11.436;2023-03-03T14:13:37;28.88;;;15.15;;
29570;SDS011;16814;52.118;11.436;2023-03-03T14:16:13;27.45;;;15.25;;
29570;SDS011;16814;52.118;11.436;2023-03-03T14:18:53;32.05;;;14.68;;
29570;SDS011;16814;52.118;11.436;2023-03-03T14:21:34;30.57;;;15.97;;
29570;SDS011;16814;52.118;11.436;2023-03-03T14:24:16;30.70;;;15.13;;
29570;SDS011;16814;52.118;11.436;2023-03-03T14:26:53;29.92;;;15.13;;
29570;SDS011;16814;52.118;11.436;2023-03-03T14:29:30;31.00;;;15.07;;
29570;SDS011;16814;52.118;11.436;2023-03-03T14:32:24;30.05;;;14.52;;
29570;SDS011;16814;52.118;11.436;2023-03-03T14:34:56;29.10;;;14.70;;
29570;SDS011;16814;52.118;11.436;2023-03-03T14:37:24;28.83;;;14.93;;
29570;SDS011;16814;52.118;11.436;2023-03-03T14:40:05;28.08;;;14.82;;
29570;SDS011;16814;52.118;11.436;2023-03-03T14:45:20;29.57;;;15.30;;
29570;SDS011;16814;52.118;11.436;2023-03-03T14:48:17;31.27;;;16.17;;
29570;SDS011;16814;52.118;11.436;2023-03-03T14:50:49;33.50;;;16.13;;
29570;SDS011;16814;52.118;11.436;2023-03-03T14:55:42;30.83;;;15.37;;
29570;SDS011;16814;52.118;11.436;2023-03-03T14:58:22;29.42;;;15.45;;
29570;SDS011;16814;52.118;11.436;2023-03-03T15:01:08;32.53;;;15.75;;
29570;SDS011;16814;52.118;11.436;2023-03-03T15:03:46;33.00;;;15.88;;
29570;SDS011;16814;52.118;11.436;2023-03-03T15:06:54;34.05;;;16.38;;
29570;SDS011;16814;52.118;11.436;2023-03-03T15:11:52;34.30;;;16.63;;
29570;SDS011;16814;52.118;11.436;2023-03-03T15:14:19;36.90;;;16.77;;
29570;SDS011;16814;52.118;11.436;2023-03-03T15:16:50;36.03;;;17.03;;
29570;SDS011;16814;52.118;11.436;2023-03-03T15:21:55;35.72;;;16.85;;
29570;SDS011;16814;52.118;11.436;2023-03-03T15:24:28;33.95;;;16.38;;
29570;SDS011;16814;52.118;11.436;2023-03-03T15:27:12;33.75;;;16.13;;
29570;SDS011;16814;52.118;11.436;2023-03-03T15:30:19;41.90;;;18.60;;
29570;SDS011;16814;52.118;11.436;2023-03-03T15:33:10;36.67;;;17.38;;
29570;SDS011;16814;52.118;11.436;2023-03-03T15:43:36;35.53;;;16.77;;
29570;SDS011;16814;52.118;11.436;2023-03-03T15:46:14;35.47;;;16.40;;
29570;SDS011;16814;52.118;11.436;2023-03-03T15:57:01;39.58;;;17.48;;
29570;SDS011;16814;52.118;11.436;2023-03-03T16:05:16;39.17;;;16.67;;
29570;SDS011;16814;52.118;11.436;2023-03-03T16:08:01;37.92;;;17.83;;
29570;SDS011;16814;52.118;11.436;2023-03-03T16:25:19;36.60;;;17.30;;
29570;SDS011;16814;52.118;11.436;2023-03-03T16:28:09;40.50;;;19.38;;
29570;SDS011;16814;52.118;11.436;2023-03-03T16:33:33;40.10;;;18.27;;
29570;SDS011;16814;52.118;11.436;2023-03-03T16:36:12;34.92;;;17.52;;
29570;SDS011;16814;52.118;11.436;2023-03-03T16:41:54;42.97;;;19.42;;
29570;SDS011;16814;52.118;11.436;2023-03-03T16:47:06;43.03;;;19.30;;
29570;SDS011;16814;52.118;11.436;2023-03-03T16:49:38;41.45;;;18.85;;
29570;SDS011;16814;52.118;11.436;2023-03-03T16:52:22;42.33;;;19.73;;
29570;SDS011;16814;52.118;11.436;2023-03-03T16:54:54;40.25;;;18.60;;
29570;SDS011;16814;52.118;11.436;2023-03-03T17:05:28;39.40;;;19.08;;
29570;SDS011;16814;52.118;11.436;2023-03-03T17:08:27;40.05;;;18.85;;
29570;SDS011;16814;52.118;11.436;2023-03-03T17:11:14;39.95;;;18.85;;
29570;SDS011;16814;52.118;11.436;2023-03-03T17:16:34;43.40;;;19.85;;
29570;SDS011;16814;52.118;11.436;2023-03-03T17:19:09;42.42;;;19.48;;
29570;SDS011;16814;52.118;11.436;2023-03-03T17:22:02;41.20;;;19.77;;
29570;SDS011;16814;52.118;11.436;2023-03-03T17:24:39;46.17;;;21.88;;
29570;SDS011;16814;52.118;11.436;2023-03-03T17:27:42;48.47;;;24.85;;
29570;SDS011;16814;52.118;11.436;2023-03-03T17:30:40;58.60;;;29.02;;
29570;SDS011;16814;52.118;11.436;2023-03-03T17:39:54;60.63;;;30.38;;
29570;SDS011;16814;52.118;11.436;2023-03-03T17:42:38;56.40;;;28.98;;
29570;SDS011;16814;52.118;11.436;2023-03-03T17:45:17;59.93;;;28.50;;
29570;SDS011;16814;52.118;11.436;2023-03-03T17:47:56;58.25;;;28.52;;
29570;SDS011;16814;52.118;11.436;2023-03-03T17:53:32;56.88;;;26.33;;
29570;SDS011;16814;52.118;11.436;2023-03-03T17:56:32;55.58;;;25.70;;
29570;SDS011;16814;52.118;11.436;2023-03-03T18:04:13;47.05;;;21.38;;
29570;SDS011;16814;52.118;11.436;2023-03-03T18:12:41;46.05;;;21.85;;
29570;SDS011;16814;52.118;11.436;2023-03-03T18:22:54;43.63;;;21.58;;
29570;SDS011;16814;52.118;11.436;2023-03-03T18:26:03;43.67;;;20.42;;
29570;SDS011;16814;52.118;11.436;2023-03-03T18:28:35;41.15;;;20.77;;
29570;SDS011;16814;52.118;11.436;2023-03-03T18:31:15;43.58;;;20.10;;
29570;SDS011;16814;52.118;11.436;2023-03-03T18:36:51;44.47;;;20.20;;
29570;SDS011;16814;52.118;11.436;2023-03-03T18:39:34;46.55;;;20.98;;
29570;SDS011;16814;52.118;11.436;2023-03-03T18:42:07;47.70;;;21.35;;
29570;SDS011;16814;52.118;11.436;2023-03-03T18:44:40;48.78;;;21.40;;
29570;SDS011;16814;52.118;11.436;2023-03-03T18:47:06;45.85;;;20.73;;
29570;SDS011;16814;52.118;11.436;2023-03-03T18:52:34;47.65;;;21.55;;
29570;SDS011;16814;52.118;11.436;2023-03-03T18:57:33;49.13;;;22.60;;
29570;SDS011;16814;52.118;11.436;2023-03-03T19:00:21;51.13;;;23.70;;
29570;SDS011;16814;52.118;11.436;2023-03-03T19:02:52;50.50;;;23.02;;
29570;SDS011;16814;52.118;11.436;2023-03-03T19:05:27;46.87;;;21.90;;
29570;SDS011;16814;52.118;11.436;2023-03-03T19:08:02;48.55;;;22.50;;